sensor_id;sensor_type;location;lat;lon;timestamp;P1;durP1;ratioP1;P2;durP2;ratioP2
45534;SDS011;35892;48.798;9.698;2022-07-10T00:00:44;4.45;;;2.80;;
45534;SDS011;35892;48.798;9.698;2022-07-10T00:03:11;3.25;;;2.95;;
45534;SDS011;35892;48.798;9.698;2022-07-10T00:05:38;4.15;;;3.30;;
45534;SDS011;35892;48.798;9.698;2022-07-10T00:08:05;3.38;;;3.08;;
45534;SDS011;35892;48.798;9.698;2022-07-10T00:10:32;3.10;;;2.80;;
45534;SDS011;35892;48.798;9.698;2022-07-10T00:13:02;2.92;;;2.63;;
45534;SDS011;35892;48.798;9.698;2022-07-10T00:15:31;3.40;;;2.70;;
45534;SDS011;35892;48.798;9.698;2022-07-10T00:18:00;3.38;;;3.08;;
45534;SDS011;35892;48.798;9.698;2022-07-10T00:20:27;3.33;;;2.95;;
45534;SDS011;35892;48.798;9.698;2022-07-10T00:22:54;3.47;;;3.03;;
45534;SDS011;35892;48.798;9.698;2022-07-10T00:25:27;4.10;;;3.72;;
45534;SDS011;35892;48.798;9.698;2022-07-10T00:27:54;4.43;;;3.42;;
45534;SDS011;35892;48.798;9.698;2022-07-10T00:30:21;4.80;;;3.38;;
45534;SDS011;35892;48.798;9.698;2022-07-10T00:32:48;4.63;;;3.75;;
45534;SDS011;35892;48.798;9.698;2022-07-10T00:35:15;4.18;;;3.28;;
45534;SDS011;35892;48.798;9.698;2022-07-10T00:37:42;3.53;;;3.03;;
45534;SDS011;35892;48.798;9.698;2022-07-10T00:40:11;4.10;;;3.65;;
45534;SDS011;35892;48.798;9.698;2022-07-10T00:42:38;3.75;;;3.30;;
45534;SDS011;35892;48.798;9.698;2022-07-10T00:45:05;4.25;;;3.53;;
45534;SDS011;35892;48.798;9.698;2022-07-10T00:47:32;3.47;;;3.17;;
45534;SDS011;35892;48.798;9.698;2022-07-10T00:49:59;3.90;;;3.22;;
45534;SDS011;35892;48.798;9.698;2022-07-10T00:52:26;4.43;;;3.17;;
45534;SDS011;35892;48.798;9.698;2022-07-10T00:54:55;3.45;;;3.15;;
45534;SDS011;35892;48.798;9.698;2022-07-10T00:57:23;3.30;;;3.00;;
45534;SDS011;35892;48.798;9.698;2022-07-10T00:59:50;3.70;;;3.20;;
45534;SDS011;35892;48.798;9.698;2022-07-10T01:02:19;5.13;;;4.35;;
45534;SDS011;35892;48.798;9.698;2022-07-10T01:04:46;4.05;;;3.50;;
45534;SDS011;35892;48.798;9.698;2022-07-10T01:07:13;5.10;;;3.83;;
45534;SDS011;35892;48.798;9.698;2022-07-10T01:09:42;4.30;;;3.90;;
45534;SDS011;35892;48.798;9.698;2022-07-10T01:12:11;3.78;;;3.47;;
45534;SDS011;35892;48.798;9.698;2022-07-10T01:14:38;4.00;;;3.60;;
45534;SDS011;35892;48.798;9.698;2022-07-10T01:17:06;4.30;;;3.58;;
45534;SDS011;35892;48.798;9.698;2022-07-10T01:19:35;5.00;;;3.85;;
45534;SDS011;35892;48.798;9.698;2022-07-10T01:22:02;3.50;;;3.20;;
45534;SDS011;35892;48.798;9.698;2022-07-10T01:24:29;3.45;;;3.10;;
45534;SDS011;35892;48.798;9.698;2022-07-10T01:26:56;4.53;;;4.10;;
45534;SDS011;35892;48.798;9.698;2022-07-10T01:29:22;5.22;;;3.58;;
45534;SDS011;35892;48.798;9.698;2022-07-10T01:31:50;5.13;;;4.22;;
45534;SDS011;35892;48.798;9.698;2022-07-10T01:34:22;3.90;;;3.10;;
45534;SDS011;35892;48.798;9.698;2022-07-10T01:36:49;4.97;;;4.07;;
45534;SDS011;35892;48.798;9.698;2022-07-10T01:39:16;5.05;;;4.32;;
45534;SDS011;35892;48.798;9.698;2022-07-10T01:41:43;4.53;;;4.13;;
45534;SDS011;35892;48.798;9.698;2022-07-10T01:44:09;5.13;;;4.60;;
45534;SDS011;35892;48.798;9.698;2022-07-10T01:46:45;4.85;;;4.35;;
45534;SDS011;35892;48.798;9.698;2022-07-10T01:49:13;4.95;;;4.45;;
45534;SDS011;35892;48.798;9.698;2022-07-10T01:51:42;5.03;;;4.63;;
45534;SDS011;35892;48.798;9.698;2022-07-10T01:54:09;6.88;;;4.32;;
45534;SDS011;35892;48.798;9.698;2022-07-10T01:56:38;4.47;;;4.07;;
45534;SDS011;35892;48.798;9.698;2022-07-10T01:59:08;3.83;;;3.53;;
45534;SDS011;35892;48.798;9.698;2022-07-10T02:05:01;5.15;;;3.60;;
45534;SDS011;35892;48.798;9.698;2022-07-10T02:07:28;5.03;;;4.40;;
45534;SDS011;35892;48.798;9.698;2022-07-10T02:09:54;4.20;;;3.80;;
45534;SDS011;35892;48.798;9.698;2022-07-10T02:12:21;4.05;;;3.65;;
45534;SDS011;35892;48.798;9.698;2022-07-10T02:14:48;3.05;;;2.85;;
45534;SDS011;35892;48.798;9.698;2022-07-10T02:17:17;3.53;;;3.22;;
45534;SDS011;35892;48.798;9.698;2022-07-10T02:19:44;4.05;;;3.30;;
45534;SDS011;35892;48.798;9.698;2022-07-10T02:22:11;5.00;;;3.47;;
45534;SDS011;35892;48.798;9.698;2022-07-10T02:24:40;4.82;;;3.40;;
45534;SDS011;35892;48.798;9.698;2022-07-10T02:27:09;3.58;;;3.28;;
45534;SDS011;35892;48.798;9.698;2022-07-10T02:29:36;3.50;;;3.20;;
45534;SDS011;35892;48.798;9.698;2022-07-10T02:32:04;3.45;;;3.15;;
45534;SDS011;35892;48.798;9.698;2022-07-10T02:34:31;3.80;;;3.47;;
45534;SDS011;35892;48.798;9.698;2022-07-10T02:36:58;4.32;;;3.67;;
45534;SDS011;35892;48.798;9.698;2022-07-10T02:39:24;3.70;;;3.40;;
45534;SDS011;35892;48.798;9.698;2022-07-10T02:41:53;3.30;;;3.00;;
45534;SDS011;35892;48.798;9.698;2022-07-10T02:44:21;4.28;;;3.10;;
45534;SDS011;35892;48.798;9.698;2022-07-10T02:46:47;3.65;;;3.35;;
45534;SDS011;35892;48.798;9.698;2022-07-10T02:49:16;4.07;;;3.67;;
45534;SDS011;35892;48.798;9.698;2022-07-10T02:51:48;4.32;;;3.75;;
45534;SDS011;35892;48.798;9.698;2022-07-10T02:54:19;4.45;;;3.70;;
45534;SDS011;35892;48.798;9.698;2022-07-10T02:56:53;3.92;;;3.55;;
45534;SDS011;35892;48.798;9.698;2022-07-10T02:59:20;3.35;;;3.00;;
45534;SDS011;35892;48.798;9.698;2022-07-10T03:01:49;3.85;;;3.55;;
45534;SDS011;35892;48.798;9.698;2022-07-10T03:04:16;4.20;;;3.80;;
45534;SDS011;35892;48.798;9.698;2022-07-10T03:06:43;5.30;;;4.68;;
45534;SDS011;35892;48.798;9.698;2022-07-10T03:09:10;4.22;;;3.80;;
45534;SDS011;35892;48.798;9.698;2022-07-10T03:11:36;5.40;;;3.72;;
45534;SDS011;35892;48.798;9.698;2022-07-10T03:14:03;5.20;;;4.70;;
45534;SDS011;35892;48.798;9.698;2022-07-10T03:16:32;5.22;;;4.32;;
45534;SDS011;35892;48.798;9.698;2022-07-10T03:18:59;5.30;;;4.80;;
45534;SDS011;35892;48.798;9.698;2022-07-10T03:21:26;5.65;;;4.60;;
45534;SDS011;35892;48.798;9.698;2022-07-10T03:23:57;5.68;;;5.15;;
45534;SDS011;35892;48.798;9.698;2022-07-10T03:26:26;5.78;;;5.35;;
45534;SDS011;35892;48.798;9.698;2022-07-10T03:28:55;5.53;;;5.03;;
45534;SDS011;35892;48.798;9.698;2022-07-10T03:31:22;5.20;;;4.70;;
45534;SDS011;35892;48.798;9.698;2022-07-10T03:33:49;4.68;;;4.28;;
45534;SDS011;35892;48.798;9.698;2022-07-10T03:36:19;5.13;;;4.72;;
45534;SDS011;35892;48.798;9.698;2022-07-10T03:38:45;5.30;;;4.80;;
45534;SDS011;35892;48.798;9.698;2022-07-10T03:41:14;6.53;;;5.30;;
45534;SDS011;35892;48.798;9.698;2022-07-10T03:43:41;8.18;;;5.43;;
45534;SDS011;35892;48.798;9.698;2022-07-10T03:46:10;5.88;;;5.10;;
45534;SDS011;35892;48.798;9.698;2022-07-10T03:48:37;5.85;;;5.30;;
45534;SDS011;35892;48.798;9.698;2022-07-10T03:51:05;4.20;;;3.80;;
45534;SDS011;35892;48.798;9.698;2022-07-10T03:53:31;5.75;;;4.43;;
45534;SDS011;35892;48.798;9.698;2022-07-10T03:56:03;5.40;;;4.82;;
45534;SDS011;35892;48.798;9.698;2022-07-10T03:58:31;6.10;;;4.72;;
45534;SDS011;35892;48.798;9.698;2022-07-10T04:00:57;4.32;;;3.92;;
45534;SDS011;35892;48.798;9.698;2022-07-10T04:03:27;4.63;;;3.97;;
45534;SDS011;35892;48.798;9.698;2022-07-10T04:05:56;4.97;;;4.57;;
45534;SDS011;35892;48.798;9.698;2022-07-10T04:08:22;6.22;;;4.78;;
45534;SDS011;35892;48.798;9.698;2022-07-10T04:10:54;4.40;;;4.03;;
45534;SDS011;35892;48.798;9.698;2022-07-10T04:13:21;5.30;;;4.80;;
45534;SDS011;35892;48.798;9.698;2022-07-10T04:15:48;8.18;;;4.75;;
45534;SDS011;35892;48.798;9.698;2022-07-10T04:18:17;5.85;;;4.50;;
45534;SDS011;35892;48.798;9.698;2022-07-10T04:20:46;5.80;;;4.80;;
45534;SDS011;35892;48.798;9.698;2022-07-10T04:23:20;5.75;;;4.68;;
45534;SDS011;35892;48.798;9.698;2022-07-10T04:25:49;6.43;;;4.55;;
45534;SDS011;35892;48.798;9.698;2022-07-10T04:28:16;4.63;;;4.10;;
45534;SDS011;35892;48.798;9.698;2022-07-10T04:30:45;4.75;;;4.28;;
45534;SDS011;35892;48.798;9.698;2022-07-10T04:33:16;5.00;;;4.32;;
45534;SDS011;35892;48.798;9.698;2022-07-10T04:35:45;3.90;;;3.40;;
45534;SDS011;35892;48.798;9.698;2022-07-10T04:38:14;4.82;;;3.33;;
45534;SDS011;35892;48.798;9.698;2022-07-10T04:40:44;5.60;;;3.55;;
45534;SDS011;35892;48.798;9.698;2022-07-10T04:43:13;3.72;;;3.08;;
45534;SDS011;35892;48.798;9.698;2022-07-10T04:45:44;3.78;;;3.30;;
45534;SDS011;35892;48.798;9.698;2022-07-10T04:48:11;3.22;;;2.80;;
45534;SDS011;35892;48.798;9.698;2022-07-10T04:50:38;3.72;;;3.35;;
45534;SDS011;35892;48.798;9.698;2022-07-10T04:53:05;4.55;;;2.90;;
45534;SDS011;35892;48.798;9.698;2022-07-10T04:55:32;2.67;;;2.47;;
45534;SDS011;35892;48.798;9.698;2022-07-10T04:58:01;2.63;;;2.42;;
45534;SDS011;35892;48.798;9.698;2022-07-10T05:00:28;2.95;;;2.75;;
45534;SDS011;35892;48.798;9.698;2022-07-10T05:02:57;3.75;;;3.08;;
45534;SDS011;35892;48.798;9.698;2022-07-10T05:05:26;4.53;;;3.00;;
45534;SDS011;35892;48.798;9.698;2022-07-10T05:07:53;3.03;;;2.40;;
45534;SDS011;35892;48.798;9.698;2022-07-10T05:10:20;4.65;;;2.15;;
45534;SDS011;35892;48.798;9.698;2022-07-10T05:12:46;2.88;;;2.15;;
45534;SDS011;35892;48.798;9.698;2022-07-10T05:15:15;2.72;;;1.60;;
45534;SDS011;35892;48.798;9.698;2022-07-10T05:17:44;3.07;;;1.70;;
45534;SDS011;35892;48.798;9.698;2022-07-10T05:20:11;2.17;;;1.30;;
45534;SDS011;35892;48.798;9.698;2022-07-10T05:22:40;3.72;;;1.30;;
45534;SDS011;35892;48.798;9.698;2022-07-10T05:25:07;3.22;;;1.60;;
45534;SDS011;35892;48.798;9.698;2022-07-10T05:27:36;1.95;;;1.30;;
45534;SDS011;35892;48.798;9.698;2022-07-10T05:30:05;2.25;;;1.48;;
45534;SDS011;35892;48.798;9.698;2022-07-10T05:32:41;2.30;;;1.33;;
45534;SDS011;35892;48.798;9.698;2022-07-10T05:35:09;2.28;;;1.17;;
45534;SDS011;35892;48.798;9.698;2022-07-10T05:37:39;2.25;;;1.27;;
45534;SDS011;35892;48.798;9.698;2022-07-10T05:40:07;1.77;;;1.00;;
45534;SDS011;35892;48.798;9.698;2022-07-10T05:42:34;3.25;;;1.27;;
45534;SDS011;35892;48.798;9.698;2022-07-10T05:45:04;4.45;;;1.13;;
45534;SDS011;35892;48.798;9.698;2022-07-10T05:47:33;3.05;;;1.20;;
45534;SDS011;35892;48.798;9.698;2022-07-10T05:50:03;1.50;;;1.08;;
45534;SDS011;35892;48.798;9.698;2022-07-10T05:52:30;4.80;;;1.20;;
45534;SDS011;35892;48.798;9.698;2022-07-10T05:54:59;2.38;;;1.00;;
45534;SDS011;35892;48.798;9.698;2022-07-10T05:57:26;2.88;;;1.08;;
45534;SDS011;35892;48.798;9.698;2022-07-10T05:59:56;1.63;;;1.00;;
45534;SDS011;35892;48.798;9.698;2022-07-10T06:02:25;3.47;;;1.00;;
45534;SDS011;35892;48.798;9.698;2022-07-10T06:04:52;2.30;;;1.10;;
45534;SDS011;35892;48.798;9.698;2022-07-10T06:07:19;3.45;;;1.20;;
45534;SDS011;35892;48.798;9.698;2022-07-10T06:09:46;3.70;;;1.10;;
45534;SDS011;35892;48.798;9.698;2022-07-10T06:12:13;3.95;;;1.05;;
45534;SDS011;35892;48.798;9.698;2022-07-10T06:14:42;3.13;;;1.10;;
45534;SDS011;35892;48.798;9.698;2022-07-10T06:17:12;1.38;;;0.82;;
45534;SDS011;35892;48.798;9.698;2022-07-10T06:19:43;1.55;;;1.02;;
45534;SDS011;35892;48.798;9.698;2022-07-10T06:22:10;2.33;;;1.17;;
45534;SDS011;35892;48.798;9.698;2022-07-10T06:24:59;1.92;;;1.10;;
45534;SDS011;35892;48.798;9.698;2022-07-10T06:27:37;2.20;;;0.90;;
45534;SDS011;35892;48.798;9.698;2022-07-10T06:30:06;7.32;;;1.45;;
45534;SDS011;35892;48.798;9.698;2022-07-10T06:32:33;4.97;;;1.02;;
45534;SDS011;35892;48.798;9.698;2022-07-10T06:35:00;1.80;;;0.90;;
45534;SDS011;35892;48.798;9.698;2022-07-10T06:37:28;2.63;;;1.02;;
45534;SDS011;35892;48.798;9.698;2022-07-10T06:39:54;2.47;;;0.80;;
45534;SDS011;35892;48.798;9.698;2022-07-10T06:42:23;5.95;;;0.95;;
45534;SDS011;35892;48.798;9.698;2022-07-10T06:44:50;4.20;;;0.90;;
45534;SDS011;35892;48.798;9.698;2022-07-10T06:47:18;2.88;;;0.82;;
45534;SDS011;35892;48.798;9.698;2022-07-10T06:50:09;2.03;;;0.80;;
45534;SDS011;35892;48.798;9.698;2022-07-10T06:52:41;3.38;;;1.00;;
45534;SDS011;35892;48.798;9.698;2022-07-10T06:55:08;3.13;;;1.10;;
45534;SDS011;35892;48.798;9.698;2022-07-10T06:57:35;2.05;;;0.90;;
45534;SDS011;35892;48.798;9.698;2022-07-10T07:00:07;1.92;;;1.00;;
45534;SDS011;35892;48.798;9.698;2022-07-10T07:02:35;2.58;;;1.20;;
45534;SDS011;35892;48.798;9.698;2022-07-10T07:05:08;2.67;;;1.13;;
45534;SDS011;35892;48.798;9.698;2022-07-10T07:07:35;2.22;;;0.90;;
45534;SDS011;35892;48.798;9.698;2022-07-10T07:10:02;2.35;;;1.08;;
45534;SDS011;35892;48.798;9.698;2022-07-10T07:12:30;1.80;;;0.90;;
45534;SDS011;35892;48.798;9.698;2022-07-10T07:14:59;2.05;;;0.75;;
45534;SDS011;35892;48.798;9.698;2022-07-10T07:17:28;3.75;;;0.90;;
45534;SDS011;35892;48.798;9.698;2022-07-10T07:20:15;1.50;;;0.80;;
45534;SDS011;35892;48.798;9.698;2022-07-10T07:23:00;3.13;;;0.98;;
45534;SDS011;35892;48.798;9.698;2022-07-10T07:25:38;3.67;;;1.20;;
45534;SDS011;35892;48.798;9.698;2022-07-10T07:28:08;2.72;;;1.15;;
45534;SDS011;35892;48.798;9.698;2022-07-10T07:30:37;3.22;;;1.10;;
45534;SDS011;35892;48.798;9.698;2022-07-10T07:33:05;2.40;;;1.00;;
45534;SDS011;35892;48.798;9.698;2022-07-10T07:35:31;1.83;;;0.80;;
45534;SDS011;35892;48.798;9.698;2022-07-10T07:37:58;4.68;;;1.20;;
45534;SDS011;35892;48.798;9.698;2022-07-10T07:40:28;2.83;;;1.00;;
45534;SDS011;35892;48.798;9.698;2022-07-10T07:43:00;3.70;;;1.02;;
45534;SDS011;35892;48.798;9.698;2022-07-10T07:45:26;2.45;;;1.00;;
45534;SDS011;35892;48.798;9.698;2022-07-10T07:47:56;3.65;;;1.15;;
45534;SDS011;35892;48.798;9.698;2022-07-10T07:50:36;2.47;;;1.00;;
45534;SDS011;35892;48.798;9.698;2022-07-10T07:53:04;1.40;;;0.82;;
45534;SDS011;35892;48.798;9.698;2022-07-10T07:55:33;2.20;;;0.88;;
45534;SDS011;35892;48.798;9.698;2022-07-10T07:58:03;3.25;;;0.90;;
45534;SDS011;35892;48.798;9.698;2022-07-10T08:00:30;2.03;;;1.00;;
45534;SDS011;35892;48.798;9.698;2022-07-10T08:02:58;2.28;;;0.90;;
45534;SDS011;35892;48.798;9.698;2022-07-10T08:05:30;3.78;;;1.05;;
45534;SDS011;35892;48.798;9.698;2022-07-10T08:08:01;3.67;;;1.00;;
45534;SDS011;35892;48.798;9.698;2022-07-10T08:10:33;2.42;;;0.88;;
45534;SDS011;35892;48.798;9.698;2022-07-10T08:13:05;3.85;;;1.00;;
45534;SDS011;35892;48.798;9.698;2022-07-10T08:15:39;5.03;;;1.00;;
45534;SDS011;35892;48.798;9.698;2022-07-10T08:18:06;1.65;;;0.73;;
45534;SDS011;35892;48.798;9.698;2022-07-10T08:20:35;2.78;;;1.35;;
45534;SDS011;35892;48.798;9.698;2022-07-10T08:23:02;1.65;;;0.90;;
45534;SDS011;35892;48.798;9.698;2022-07-10T08:25:29;4.05;;;0.80;;
45534;SDS011;35892;48.798;9.698;2022-07-10T08:28:00;2.13;;;0.70;;
45534;SDS011;35892;48.798;9.698;2022-07-10T08:30:32;2.30;;;0.75;;
45534;SDS011;35892;48.798;9.698;2022-07-10T08:33:02;3.45;;;1.30;;
45534;SDS011;35892;48.798;9.698;2022-07-10T08:35:31;2.55;;;1.10;;
45534;SDS011;35892;48.798;9.698;2022-07-10T08:38:00;2.80;;;0.80;;
45534;SDS011;35892;48.798;9.698;2022-07-10T08:40:30;4.05;;;1.25;;
45534;SDS011;35892;48.798;9.698;2022-07-10T08:43:02;4.60;;;1.27;;
45534;SDS011;35892;48.798;9.698;2022-07-10T08:45:32;2.20;;;0.60;;
45534;SDS011;35892;48.798;9.698;2022-07-10T08:48:05;4.10;;;1.00;;
45534;SDS011;35892;48.798;9.698;2022-07-10T08:50:37;2.13;;;0.88;;
45534;SDS011;35892;48.798;9.698;2022-07-10T08:53:13;3.10;;;1.08;;
45534;SDS011;35892;48.798;9.698;2022-07-10T08:55:45;3.72;;;1.20;;
45534;SDS011;35892;48.798;9.698;2022-07-10T08:58:15;2.88;;;1.00;;
45534;SDS011;35892;48.798;9.698;2022-07-10T09:00:44;2.88;;;1.08;;
45534;SDS011;35892;48.798;9.698;2022-07-10T09:03:11;3.10;;;0.90;;
45534;SDS011;35892;48.798;9.698;2022-07-10T09:05:37;3.08;;;1.25;;
45534;SDS011;35892;48.798;9.698;2022-07-10T09:08:25;1.50;;;0.88;;
45534;SDS011;35892;48.798;9.698;2022-07-10T09:11:16;3.15;;;0.90;;
45534;SDS011;35892;48.798;9.698;2022-07-10T09:13:53;3.05;;;0.90;;
45534;SDS011;35892;48.798;9.698;2022-07-10T09:16:27;2.50;;;1.00;;
45534;SDS011;35892;48.798;9.698;2022-07-10T09:18:56;2.33;;;0.80;;
45534;SDS011;35892;48.798;9.698;2022-07-10T09:21:23;2.08;;;0.85;;
45534;SDS011;35892;48.798;9.698;2022-07-10T09:23:55;2.10;;;0.80;;
45534;SDS011;35892;48.798;9.698;2022-07-10T09:26:32;3.90;;;0.93;;
45534;SDS011;35892;48.798;9.698;2022-07-10T09:29:06;2.35;;;1.00;;
45534;SDS011;35892;48.798;9.698;2022-07-10T09:42:33;1.42;;;0.95;;
45534;SDS011;35892;48.798;9.698;2022-07-10T09:45:21;2.33;;;0.93;;
45534;SDS011;35892;48.798;9.698;2022-07-10T09:50:28;2.55;;;1.05;;
45534;SDS011;35892;48.798;9.698;2022-07-10T09:53:02;1.45;;;0.80;;
45534;SDS011;35892;48.798;9.698;2022-07-10T09:55:30;3.03;;;1.13;;
45534;SDS011;35892;48.798;9.698;2022-07-10T09:58:08;3.50;;;0.90;;
45534;SDS011;35892;48.798;9.698;2022-07-10T10:00:36;3.05;;;1.02;;
45534;SDS011;35892;48.798;9.698;2022-07-10T10:03:09;4.05;;;0.90;;
45534;SDS011;35892;48.798;9.698;2022-07-10T10:05:58;3.95;;;1.10;;
45534;SDS011;35892;48.798;9.698;2022-07-10T10:11:18;1.27;;;0.70;;
45534;SDS011;35892;48.798;9.698;2022-07-10T10:13:49;2.03;;;0.90;;
45534;SDS011;35892;48.798;9.698;2022-07-10T10:16:17;2.38;;;0.73;;
45534;SDS011;35892;48.798;9.698;2022-07-10T10:18:46;2.00;;;1.08;;
45534;SDS011;35892;48.798;9.698;2022-07-10T10:21:32;1.23;;;0.80;;
45534;SDS011;35892;48.798;9.698;2022-07-10T10:24:00;2.70;;;0.90;;
45534;SDS011;35892;48.798;9.698;2022-07-10T10:26:28;2.08;;;0.90;;
45534;SDS011;35892;48.798;9.698;2022-07-10T10:28:58;1.63;;;0.80;;
45534;SDS011;35892;48.798;9.698;2022-07-10T10:31:30;2.97;;;1.08;;
45534;SDS011;35892;48.798;9.698;2022-07-10T10:34:00;2.33;;;0.88;;
45534;SDS011;35892;48.798;9.698;2022-07-10T10:37:01;1.80;;;0.98;;
45534;SDS011;35892;48.798;9.698;2022-07-10T10:39:20;3.80;;;0.93;;
45534;SDS011;35892;48.798;9.698;2022-07-10T10:41:56;1.40;;;0.70;;
45534;SDS011;35892;48.798;9.698;2022-07-10T10:44:26;5.28;;;0.73;;
45534;SDS011;35892;48.798;9.698;2022-07-10T10:47:01;3.38;;;0.90;;
45534;SDS011;35892;48.798;9.698;2022-07-10T10:49:52;1.98;;;0.70;;
45534;SDS011;35892;48.798;9.698;2022-07-10T10:52:22;1.58;;;0.70;;
45534;SDS011;35892;48.798;9.698;2022-07-10T11:00:00;1.75;;;0.68;;
45534;SDS011;35892;48.798;9.698;2022-07-10T11:07:58;1.77;;;0.63;;
45534;SDS011;35892;48.798;9.698;2022-07-10T11:10:42;2.08;;;0.73;;
45534;SDS011;35892;48.798;9.698;2022-07-10T11:13:17;3.47;;;0.80;;
45534;SDS011;35892;48.798;9.698;2022-07-10T11:15:48;3.53;;;0.85;;
45534;SDS011;35892;48.798;9.698;2022-07-10T11:18:19;1.85;;;0.60;;
45534;SDS011;35892;48.798;9.698;2022-07-10T11:20:54;2.60;;;0.60;;
45534;SDS011;35892;48.798;9.698;2022-07-10T11:26:04;1.30;;;0.63;;
45534;SDS011;35892;48.798;9.698;2022-07-10T11:28:55;2.90;;;0.73;;
45534;SDS011;35892;48.798;9.698;2022-07-10T11:31:26;2.65;;;0.73;;
45534;SDS011;35892;48.798;9.698;2022-07-10T11:33:54;1.73;;;0.70;;
45534;SDS011;35892;48.798;9.698;2022-07-10T11:36:23;1.98;;;0.47;;
45534;SDS011;35892;48.798;9.698;2022-07-10T11:41:26;2.05;;;0.60;;
45534;SDS011;35892;48.798;9.698;2022-07-10T11:43:56;1.60;;;0.65;;
45534;SDS011;35892;48.798;9.698;2022-07-10T11:46:27;0.85;;;0.50;;
45534;SDS011;35892;48.798;9.698;2022-07-10T11:48:55;1.77;;;0.60;;
45534;SDS011;35892;48.798;9.698;2022-07-10T11:51:29;1.65;;;0.60;;
45534;SDS011;35892;48.798;9.698;2022-07-10T11:56:29;2.97;;;0.60;;
45534;SDS011;35892;48.798;9.698;2022-07-10T11:59:05;2.38;;;0.75;;
45534;SDS011;35892;48.798;9.698;2022-07-10T12:04:02;1.65;;;0.50;;
45534;SDS011;35892;48.798;9.698;2022-07-10T12:06:36;1.23;;;0.50;;
45534;SDS011;35892;48.798;9.698;2022-07-10T12:09:14;2.40;;;0.50;;
45534;SDS011;35892;48.798;9.698;2022-07-10T12:11:43;1.85;;;0.40;;
45534;SDS011;35892;48.798;9.698;2022-07-10T12:14:23;1.20;;;0.55;;
45534;SDS011;35892;48.798;9.698;2022-07-10T12:16:50;2.60;;;0.60;;
45534;SDS011;35892;48.798;9.698;2022-07-10T12:19:20;2.10;;;0.60;;
45534;SDS011;35892;48.798;9.698;2022-07-10T12:21:54;1.23;;;0.60;;
45534;SDS011;35892;48.798;9.698;2022-07-10T12:24:23;1.35;;;0.60;;
45534;SDS011;35892;48.798;9.698;2022-07-10T12:26:55;1.48;;;0.60;;
45534;SDS011;35892;48.798;9.698;2022-07-10T12:29:30;2.00;;;0.57;;
45534;SDS011;35892;48.798;9.698;2022-07-10T12:32:02;1.70;;;0.90;;
45534;SDS011;35892;48.798;9.698;2022-07-10T12:34:32;1.02;;;0.50;;
45534;SDS011;35892;48.798;9.698;2022-07-10T12:37:05;1.58;;;0.55;;
45534;SDS011;35892;48.798;9.698;2022-07-10T12:39:37;1.75;;;0.50;;
45534;SDS011;35892;48.798;9.698;2022-07-10T12:42:11;3.22;;;0.73;;
45534;SDS011;35892;48.798;9.698;2022-07-10T12:47:22;2.47;;;0.77;;
45534;SDS011;35892;48.798;9.698;2022-07-10T12:52:19;2.25;;;0.50;;
45534;SDS011;35892;48.798;9.698;2022-07-10T12:57:45;1.60;;;0.50;;
45534;SDS011;35892;48.798;9.698;2022-07-10T13:00:22;1.58;;;0.73;;
45534;SDS011;35892;48.798;9.698;2022-07-10T13:02:58;2.00;;;0.52;;
45534;SDS011;35892;48.798;9.698;2022-07-10T13:10:50;4.45;;;0.80;;
45534;SDS011;35892;48.798;9.698;2022-07-10T13:13:21;2.58;;;0.73;;
45534;SDS011;35892;48.798;9.698;2022-07-10T13:15:48;0.93;;;0.40;;
45534;SDS011;35892;48.798;9.698;2022-07-10T13:18:24;1.95;;;0.60;;
45534;SDS011;35892;48.798;9.698;2022-07-10T13:20:56;0.75;;;0.40;;
45534;SDS011;35892;48.798;9.698;2022-07-10T13:23:27;1.63;;;0.55;;
45534;SDS011;35892;48.798;9.698;2022-07-10T13:25:55;1.92;;;0.50;;
45534;SDS011;35892;48.798;9.698;2022-07-10T13:28:22;0.57;;;0.30;;
45534;SDS011;35892;48.798;9.698;2022-07-10T13:30:50;2.75;;;0.85;;
45534;SDS011;35892;48.798;9.698;2022-07-10T13:33:17;1.42;;;0.70;;
45534;SDS011;35892;48.798;9.698;2022-07-10T13:35:46;1.25;;;0.50;;
45534;SDS011;35892;48.798;9.698;2022-07-10T13:38:14;3.35;;;0.50;;
45534;SDS011;35892;48.798;9.698;2022-07-10T13:40:46;2.90;;;0.60;;
45534;SDS011;35892;48.798;9.698;2022-07-10T13:43:16;2.03;;;0.80;;
45534;SDS011;35892;48.798;9.698;2022-07-10T13:45:47;2.00;;;0.63;;
45534;SDS011;35892;48.798;9.698;2022-07-10T13:48:14;1.08;;;0.40;;
45534;SDS011;35892;48.798;9.698;2022-07-10T13:50:43;3.28;;;1.58;;
45534;SDS011;35892;48.798;9.698;2022-07-10T13:53:16;4.63;;;2.75;;
45534;SDS011;35892;48.798;9.698;2022-07-10T13:55:43;2.47;;;1.23;;
45534;SDS011;35892;48.798;9.698;2022-07-10T13:58:10;1.73;;;0.90;;
45534;SDS011;35892;48.798;9.698;2022-07-10T14:00:40;1.60;;;0.40;;
45534;SDS011;35892;48.798;9.698;2022-07-10T14:03:07;1.63;;;0.50;;
45534;SDS011;35892;48.798;9.698;2022-07-10T14:05:35;2.10;;;0.57;;
45534;SDS011;35892;48.798;9.698;2022-07-10T14:08:02;2.08;;;0.57;;
45534;SDS011;35892;48.798;9.698;2022-07-10T14:10:31;1.75;;;0.50;;
45534;SDS011;35892;48.798;9.698;2022-07-10T14:12:58;1.25;;;0.75;;
45534;SDS011;35892;48.798;9.698;2022-07-10T14:15:28;0.90;;;0.40;;
45534;SDS011;35892;48.798;9.698;2022-07-10T14:17:55;2.13;;;0.40;;
45534;SDS011;35892;48.798;9.698;2022-07-10T14:20:22;0.70;;;0.40;;
45534;SDS011;35892;48.798;9.698;2022-07-10T14:22:49;2.38;;;0.70;;
45534;SDS011;35892;48.798;9.698;2022-07-10T14:25:15;1.80;;;0.77;;
45534;SDS011;35892;48.798;9.698;2022-07-10T14:27:45;2.45;;;1.27;;
45534;SDS011;35892;48.798;9.698;2022-07-10T14:30:15;1.63;;;0.68;;
45534;SDS011;35892;48.798;9.698;2022-07-10T14:32:43;4.18;;;2.20;;
45534;SDS011;35892;48.798;9.698;2022-07-10T14:35:11;4.53;;;3.38;;
45534;SDS011;35892;48.798;9.698;2022-07-10T14:37:40;1.27;;;0.50;;
45534;SDS011;35892;48.798;9.698;2022-07-10T14:40:09;2.58;;;0.68;;
45534;SDS011;35892;48.798;9.698;2022-07-10T14:42:37;1.75;;;0.60;;
45534;SDS011;35892;48.798;9.698;2022-07-10T14:45:05;2.83;;;0.60;;
45534;SDS011;35892;48.798;9.698;2022-07-10T14:47:49;1.00;;;0.50;;
45534;SDS011;35892;48.798;9.698;2022-07-10T14:50:16;1.67;;;0.52;;
45534;SDS011;35892;48.798;9.698;2022-07-10T14:52:45;1.75;;;0.40;;
45534;SDS011;35892;48.798;9.698;2022-07-10T14:55:17;1.75;;;0.40;;
45534;SDS011;35892;48.798;9.698;2022-07-10T14:57:44;2.25;;;0.77;;
45534;SDS011;35892;48.798;9.698;2022-07-10T15:00:11;1.48;;;0.50;;
45534;SDS011;35892;48.798;9.698;2022-07-10T15:02:38;1.80;;;0.50;;
45534;SDS011;35892;48.798;9.698;2022-07-10T15:05:07;1.55;;;0.50;;
45534;SDS011;35892;48.798;9.698;2022-07-10T15:07:34;4.63;;;0.65;;
45534;SDS011;35892;48.798;9.698;2022-07-10T15:10:00;1.10;;;0.40;;
45534;SDS011;35892;48.798;9.698;2022-07-10T15:12:27;1.00;;;0.40;;
45534;SDS011;35892;48.798;9.698;2022-07-10T15:14:57;1.00;;;0.40;;
45534;SDS011;35892;48.798;9.698;2022-07-10T15:17:24;2.22;;;0.63;;
45534;SDS011;35892;48.798;9.698;2022-07-10T15:19:51;0.70;;;0.40;;
45534;SDS011;35892;48.798;9.698;2022-07-10T15:22:24;2.05;;;0.50;;
45534;SDS011;35892;48.798;9.698;2022-07-10T15:24:53;1.85;;;0.45;;
45534;SDS011;35892;48.798;9.698;2022-07-10T15:27:20;1.00;;;0.32;;
45534;SDS011;35892;48.798;9.698;2022-07-10T15:29:52;0.80;;;0.35;;
45534;SDS011;35892;48.798;9.698;2022-07-10T15:32:21;2.23;;;0.53;;
45534;SDS011;35892;48.798;9.698;2022-07-10T15:34:51;1.33;;;0.40;;
45534;SDS011;35892;48.798;9.698;2022-07-10T15:37:19;1.63;;;0.43;;
45534;SDS011;35892;48.798;9.698;2022-07-10T15:39:51;1.35;;;0.50;;
45534;SDS011;35892;48.798;9.698;2022-07-10T15:42:18;1.42;;;0.40;;
45534;SDS011;35892;48.798;9.698;2022-07-10T15:44:45;0.52;;;0.40;;
45534;SDS011;35892;48.798;9.698;2022-07-10T15:47:14;2.65;;;0.50;;
45534;SDS011;35892;48.798;9.698;2022-07-10T15:49:41;1.20;;;0.40;;
45534;SDS011;35892;48.798;9.698;2022-07-10T15:52:08;1.08;;;0.50;;
45534;SDS011;35892;48.798;9.698;2022-07-10T15:54:35;1.23;;;0.45;;
45534;SDS011;35892;48.798;9.698;2022-07-10T15:57:02;1.83;;;0.63;;